createdAt,value
2017-12-03T00:00:52.573Z,63.90
2017-12-03T00:03:18.758Z,59.13
2017-12-03T00:05:45.721Z,58.40
2017-12-03T00:08:11.909Z,60.42
2017-12-03T00:10:38.854Z,63.47
2017-12-03T00:13:05.047Z,63.87
2017-12-03T00:15:31.212Z,61.20
2017-12-03T00:17:57.380Z,59.90
2017-12-03T00:20:23.605Z,69.05
2017-12-03T00:22:50.558Z,60.08
2017-12-03T00:25:16.762Z,60.25
2017-12-03T00:27:42.973Z,56.30
2017-12-03T00:30:09.165Z,57.13
2017-12-03T00:32:36.109Z,55.47
2017-12-03T00:35:02.289Z,61.92
2017-12-03T00:37:28.474Z,52.10
2017-12-03T00:39:54.665Z,68.22
2017-12-03T00:42:21.113Z,61.20
2017-12-03T00:44:47.477Z,56.33
2017-12-03T00:47:13.643Z,57.72
2017-12-03T00:49:39.859Z,59.78
2017-12-03T00:52:06.031Z,57.33
2017-12-03T00:54:32.193Z,59.58
2017-12-03T00:56:58.392Z,57.20
2017-12-03T00:59:24.558Z,61.10
2017-12-03T01:01:50.704Z,60.45
2017-12-03T01:04:16.876Z,61.45
2017-12-03T01:06:43.058Z,57.42
2017-12-03T01:09:10.016Z,56.78
2017-12-03T01:11:36.188Z,55.95
2017-12-03T01:14:03.092Z,54.97
2017-12-03T01:16:29.296Z,56.10
2017-12-03T01:18:55.510Z,60.88
2017-12-03T01:21:22.425Z,61.08
2017-12-03T01:23:48.616Z,53.58
2017-12-03T01:26:14.826Z,59.17
2017-12-03T01:28:41.766Z,57.22
2017-12-03T01:31:08.668Z,58.20
2017-12-03T01:33:34.869Z,68.07
2017-12-03T01:36:01.058Z,56.85
2017-12-03T01:38:27.253Z,55.05
2017-12-03T01:40:53.453Z,61.90
2017-12-03T01:43:20.492Z,56.85
2017-12-03T01:45:46.838Z,49.63
2017-12-03T01:48:13.029Z,63.87
2017-12-03T01:50:39.205Z,53.83
2017-12-03T01:53:06.144Z,57.42
2017-12-03T01:55:32.337Z,58.47
2017-12-03T01:57:58.510Z,55.38
2017-12-03T02:00:24.685Z,54.03
2017-12-03T02:02:50.937Z,59.20
2017-12-03T02:05:17.130Z,54.47
2017-12-03T02:07:44.063Z,57.35
2017-12-03T02:10:10.261Z,51.22
2017-12-03T02:12:36.453Z,50.92
2017-12-03T02:15:03.387Z,55.53
2017-12-03T02:17:30.345Z,52.90
2017-12-03T02:19:57.244Z,48.45
2017-12-03T02:22:23.433Z,50.47
2017-12-03T02:24:50.383Z,47.53
2017-12-03T02:27:16.544Z,44.70
2017-12-03T02:29:42.725Z,47.65
2017-12-03T02:32:08.945Z,46.25
2017-12-03T02:34:35.133Z,47.00
2017-12-03T02:37:01.311Z,43.63
2017-12-03T02:39:27.538Z,43.83
2017-12-03T02:41:53.726Z,41.42
2017-12-03T02:44:20.714Z,45.05
2017-12-03T02:46:47.125Z,40.35
2017-12-03T02:49:13.345Z,43.83
2017-12-03T02:51:40.261Z,37.58
2017-12-03T02:54:06.432Z,44.03
2017-12-03T02:56:33.375Z,35.92
2017-12-03T02:59:00.325Z,36.05
2017-12-03T03:01:26.504Z,37.10
2017-12-03T03:03:52.660Z,35.22
2017-12-03T03:06:18.841Z,37.58
2017-12-03T03:08:45.769Z,37.55
2017-12-03T03:11:11.943Z,36.05
2017-12-03T03:13:38.108Z,28.83
2017-12-03T03:16:04.339Z,31.75
2017-12-03T03:18:30.508Z,34.42
2017-12-03T03:20:56.673Z,33.78
2017-12-03T03:23:22.893Z,27.85
2017-12-03T03:25:49.805Z,27.05
2017-12-03T03:28:17.462Z,34.97
2017-12-03T03:30:43.694Z,31.10
2017-12-03T03:33:09.852Z,26.30
2017-12-03T03:35:36.009Z,23.30
2017-12-03T03:38:02.946Z,24.23
2017-12-03T03:40:29.857Z,26.55
2017-12-03T03:42:56.037Z,21.48
2017-12-03T03:45:23.113Z,26.02
2017-12-03T03:47:50.217Z,25.55
2017-12-03T03:50:16.384Z,25.50
2017-12-03T03:52:43.332Z,23.55
2017-12-03T03:55:10.250Z,23.98
2017-12-03T03:57:36.417Z,22.85
2017-12-03T04:00:03.349Z,20.92
2017-12-03T04:02:29.505Z,24.87
2017-12-03T04:04:55.686Z,22.00
2017-12-03T04:07:21.896Z,17.85
2017-12-03T04:09:48.093Z,17.77
2017-12-03T04:12:15.003Z,22.02
2017-12-03T04:14:41.190Z,19.55
2017-12-03T04:17:07.376Z,17.45
2017-12-03T04:19:33.561Z,17.42
2017-12-03T04:21:59.763Z,14.45
2017-12-03T04:24:26.104Z,15.98
2017-12-03T04:26:52.285Z,24.55
2017-12-03T04:29:18.476Z,16.08
2017-12-03T04:31:45.509Z,20.65
2017-12-03T04:34:11.670Z,12.73
2017-12-03T04:36:37.865Z,17.52
2017-12-03T04:39:04.063Z,18.50
2017-12-03T04:41:30.233Z,12.10
2017-12-03T04:43:56.421Z,14.00
2017-12-03T04:46:23.520Z,12.63
2017-12-03T04:48:50.687Z,16.12
2017-12-03T04:51:16.873Z,13.30
2017-12-03T04:53:43.065Z,13.70
2017-12-03T04:56:09.223Z,10.90
2017-12-03T04:58:36.137Z,12.55
2017-12-03T05:01:02.293Z,9.73
2017-12-03T05:03:29.334Z,13.30
2017-12-03T05:05:55.576Z,12.70
2017-12-03T05:08:22.516Z,15.50
2017-12-03T05:10:48.703Z,13.88
2017-12-03T05:13:14.903Z,15.45
2017-12-03T05:15:41.798Z,14.43
2017-12-03T05:18:07.961Z,14.57
2017-12-03T05:20:34.116Z,13.52
2017-12-03T05:23:01.025Z,12.65
2017-12-03T05:25:27.183Z,13.68
2017-12-03T05:27:53.376Z,15.95
2017-12-03T05:30:19.557Z,10.35
2017-12-03T05:32:45.760Z,14.20
2017-12-03T05:35:12.082Z,13.77
2017-12-03T05:37:38.245Z,16.70
2017-12-03T05:40:04.426Z,13.38
2017-12-03T05:42:32.230Z,13.82
2017-12-03T05:44:58.386Z,15.82
2017-12-03T05:47:24.628Z,11.05
2017-12-03T05:49:50.958Z,16.20
2017-12-03T05:52:17.138Z,14.48
2017-12-03T05:54:43.358Z,15.45
2017-12-03T05:57:09.541Z,13.90
2017-12-03T05:59:35.697Z,11.93
2017-12-03T06:02:01.885Z,11.95
2017-12-03T06:04:28.104Z,15.45
2017-12-03T06:06:54.297Z,16.10
2017-12-03T06:09:20.476Z,14.75
2017-12-03T06:11:46.667Z,18.05
2017-12-03T06:14:13.615Z,15.85
2017-12-03T06:16:39.813Z,17.27
2017-12-03T06:19:05.998Z,18.20
2017-12-03T06:21:32.942Z,17.23
2017-12-03T06:23:59.840Z,16.23
2017-12-03T06:26:26.015Z,15.43
2017-12-03T06:28:52.176Z,16.90
2017-12-03T06:31:19.081Z,14.02
2017-12-03T06:33:45.270Z,16.55
2017-12-03T06:36:11.457Z,21.40
2017-12-03T06:38:37.625Z,15.60
2017-12-03T06:41:04.568Z,13.88
2017-12-03T06:43:31.485Z,15.00
2017-12-03T06:45:57.681Z,14.73
2017-12-03T06:48:24.134Z,14.27
2017-12-03T06:50:50.495Z,16.98
2017-12-03T06:53:16.677Z,13.38
2017-12-03T06:55:42.906Z,18.00
2017-12-03T06:58:09.133Z,13.25
2017-12-03T07:00:35.318Z,16.00
2017-12-03T07:03:01.525Z,15.85
2017-12-03T07:05:27.678Z,16.12
2017-12-03T07:07:53.853Z,15.25
2017-12-03T07:10:20.051Z,18.92
2017-12-03T07:12:46.230Z,18.70
2017-12-03T07:15:13.153Z,17.62
2017-12-03T07:17:39.373Z,16.83
2017-12-03T07:20:06.333Z,20.02
2017-12-03T07:22:32.506Z,20.75
2017-12-03T07:24:58.716Z,21.58
2017-12-03T07:27:24.957Z,18.08
2017-12-03T07:29:51.882Z,20.70
2017-12-03T07:32:18.079Z,18.27
2017-12-03T07:34:44.269Z,21.67
2017-12-03T07:37:11.205Z,23.40
2017-12-03T07:39:37.394Z,24.25
2017-12-03T07:42:03.589Z,19.65
2017-12-03T07:44:29.775Z,24.75
2017-12-03T07:46:55.968Z,18.80
2017-12-03T07:49:22.229Z,23.15
2017-12-03T07:51:48.652Z,18.15
2017-12-03T07:54:14.840Z,17.27
2017-12-03T07:56:41.022Z,17.67
2017-12-03T07:59:07.213Z,17.73
2017-12-03T08:01:33.416Z,18.67
2017-12-03T08:03:59.627Z,23.35
2017-12-03T08:06:25.821Z,21.60
2017-12-03T08:08:52.044Z,29.20
2017-12-03T08:11:18.229Z,24.05
2017-12-03T08:13:45.245Z,23.17
2017-12-03T08:16:12.242Z,19.85
2017-12-03T08:18:38.464Z,19.92
2017-12-03T08:21:04.677Z,21.50
2017-12-03T08:23:30.949Z,23.65
2017-12-03T08:25:57.228Z,20.62
2017-12-03T08:28:24.194Z,22.62
2017-12-03T08:30:50.394Z,25.65
2017-12-03T08:33:16.593Z,26.27
2017-12-03T08:35:42.776Z,22.83
2017-12-03T08:38:09.010Z,25.17
2017-12-03T08:40:35.314Z,24.77
2017-12-03T08:43:01.558Z,26.10
2017-12-03T08:45:27.805Z,25.12
2017-12-03T08:48:01.191Z,27.27
2017-12-03T08:50:27.477Z,23.90
2017-12-03T08:52:53.953Z,29.00
2017-12-03T08:55:25.188Z,24.17
2017-12-03T08:57:51.443Z,21.17
2017-12-03T09:00:17.619Z,24.73
2017-12-03T09:02:44.712Z,23.38
2017-12-03T09:05:10.953Z,25.37
2017-12-03T09:07:37.409Z,20.42
2017-12-03T09:10:03.697Z,25.17
2017-12-03T09:12:30.705Z,28.38
2017-12-03T09:14:56.965Z,20.48
2017-12-03T09:17:23.356Z,24.48
2017-12-03T09:19:49.683Z,22.20
2017-12-03T09:22:15.923Z,22.02
2017-12-03T09:24:42.122Z,19.87
2017-12-03T09:27:09.085Z,20.77
2017-12-03T09:29:36.036Z,24.80
2017-12-03T09:32:02.282Z,25.77
2017-12-03T09:34:28.701Z,24.20
2017-12-03T09:36:55.630Z,22.87
2017-12-03T09:39:23.938Z,17.15
2017-12-03T09:41:50.217Z,19.67
2017-12-03T09:44:16.400Z,20.10
2017-12-03T09:46:42.600Z,19.70
2017-12-03T09:49:08.837Z,16.52
2017-12-03T09:51:35.157Z,18.45
2017-12-03T09:54:02.170Z,19.63
2017-12-03T09:56:28.405Z,17.87
2017-12-03T09:58:54.657Z,17.83
2017-12-03T10:01:24.169Z,19.75
2017-12-03T10:03:50.392Z,18.60
2017-12-03T10:06:17.502Z,23.20
2017-12-03T10:08:43.683Z,22.10
2017-12-03T10:11:09.928Z,21.60
2017-12-03T10:13:36.192Z,19.10
2017-12-03T10:16:02.437Z,20.90
2017-12-03T10:18:28.684Z,20.83
2017-12-03T10:20:54.944Z,20.67
2017-12-03T10:23:23.361Z,18.43
2017-12-03T10:25:50.614Z,16.42
2017-12-03T10:28:16.990Z,22.50
2017-12-03T10:30:43.294Z,19.43
2017-12-03T10:33:09.589Z,17.77
2017-12-03T10:35:36.590Z,20.12
2017-12-03T10:38:05.649Z,21.33
2017-12-03T10:40:32.641Z,21.70
2017-12-03T10:42:58.850Z,23.63
2017-12-03T10:45:25.017Z,25.15
2017-12-03T10:47:51.191Z,23.25
2017-12-03T10:50:17.406Z,21.65
2017-12-03T10:52:43.669Z,23.40
2017-12-03T10:55:10.099Z,22.87
2017-12-03T10:57:36.261Z,22.45
2017-12-03T11:00:02.430Z,26.43
2017-12-03T11:02:28.642Z,24.77
2017-12-03T11:04:54.821Z,29.58
2017-12-03T11:07:21.732Z,26.37
2017-12-03T11:09:47.925Z,28.07
2017-12-03T11:12:14.092Z,27.53
2017-12-03T11:14:40.250Z,33.00
2017-12-03T11:17:06.420Z,34.13
2017-12-03T11:19:33.338Z,31.67
2017-12-03T11:21:59.514Z,33.50
2017-12-03T11:24:26.428Z,37.03
2017-12-03T11:26:52.613Z,39.53
2017-12-03T11:29:19.516Z,29.37
2017-12-03T11:31:45.721Z,35.93
2017-12-03T11:34:11.910Z,31.60
2017-12-03T11:36:38.972Z,36.95
2017-12-03T11:39:05.247Z,36.55
2017-12-03T11:41:31.808Z,36.43
2017-12-03T11:43:58.112Z,45.33
2017-12-03T11:46:25.054Z,37.87
2017-12-03T11:48:51.231Z,37.77
2017-12-03T11:51:17.477Z,37.03
2017-12-03T11:53:43.740Z,41.10
2017-12-03T11:56:10.170Z,38.33
2017-12-03T11:58:36.551Z,43.90
2017-12-03T12:01:02.750Z,45.13
2017-12-03T12:03:29.756Z,47.47
2017-12-03T12:05:55.948Z,45.13
2017-12-03T12:08:22.161Z,45.90
2017-12-03T12:10:49.410Z,45.80
2017-12-03T12:13:15.572Z,43.97
2017-12-03T12:15:41.769Z,50.93
2017-12-03T12:18:07.966Z,48.30
2017-12-03T12:20:34.378Z,45.43
2017-12-03T12:23:00.669Z,49.93
2017-12-03T12:25:27.123Z,51.40
2017-12-03T12:27:53.321Z,45.93
2017-12-03T12:30:19.524Z,50.77
2017-12-03T12:32:45.700Z,56.20
2017-12-03T12:35:11.908Z,56.97
2017-12-03T12:37:38.135Z,66.30
2017-12-03T12:40:04.339Z,59.00
2017-12-03T12:42:31.292Z,59.17
2017-12-03T12:44:58.291Z,65.73
2017-12-03T12:47:24.757Z,57.17
2017-12-03T12:49:51.030Z,60.57
2017-12-03T12:52:18.757Z,56.63
2017-12-03T12:54:46.089Z,58.93
2017-12-03T12:57:12.769Z,61.80
2017-12-03T12:59:39.697Z,73.10
2017-12-03T13:02:05.893Z,65.53
2017-12-03T13:04:56.321Z,69.00
2017-12-03T13:07:22.956Z,75.00
2017-12-03T13:09:51.399Z,73.20
2017-12-03T13:12:19.414Z,73.97
2017-12-03T13:17:53.316Z,74.93
2017-12-03T13:20:19.473Z,77.30
2017-12-03T13:22:45.626Z,72.90
2017-12-03T13:25:13.553Z,60.63
2017-12-03T13:27:39.712Z,82.43
2017-12-03T13:33:12.597Z,72.73
2017-12-03T13:38:42.393Z,74.37
2017-12-03T13:41:08.573Z,55.67
2017-12-03T13:43:35.502Z,73.03
2017-12-03T13:46:02.984Z,62.23
2017-12-03T13:48:30.688Z,58.20
2017-12-03T13:50:57.654Z,60.10
2017-12-03T13:53:24.028Z,68.23
2017-12-03T13:55:51.017Z,53.93
2017-12-03T13:58:17.852Z,49.93
2017-12-03T14:00:44.964Z,58.60
2017-12-03T14:03:12.127Z,54.37
2017-12-03T14:05:38.512Z,49.80
2017-12-03T14:08:05.122Z,55.53
2017-12-03T14:10:31.336Z,50.67
2017-12-03T14:12:57.624Z,48.50
2017-12-03T14:15:23.837Z,42.93
2017-12-03T14:17:50.057Z,49.07
2017-12-03T14:20:16.235Z,49.03
2017-12-03T14:22:42.464Z,47.47
2017-12-03T14:25:09.627Z,48.30
2017-12-03T14:27:36.305Z,54.80
2017-12-03T14:30:04.546Z,80.00
2017-12-03T14:32:31.019Z,66.57
2017-12-03T14:34:57.226Z,58.93
2017-12-03T14:37:24.148Z,56.77
2017-12-03T14:39:50.356Z,48.00
2017-12-03T14:42:16.533Z,58.23
2017-12-03T14:44:43.502Z,52.93
2017-12-03T14:47:09.715Z,56.23
2017-12-03T14:49:35.903Z,64.77
2017-12-03T14:52:02.119Z,63.67
2017-12-03T14:54:28.358Z,59.40
2017-12-03T14:56:55.034Z,60.80
2017-12-03T14:59:21.345Z,58.80
2017-12-03T15:01:47.520Z,142.03
2017-12-03T15:04:13.783Z,76.53
2017-12-03T15:06:40.221Z,62.27
2017-12-03T15:09:06.581Z,71.43
2017-12-03T15:11:33.042Z,54.00
2017-12-03T15:14:00.898Z,57.97
2017-12-03T15:16:28.764Z,55.20
2017-12-03T15:18:54.996Z,55.20
2017-12-03T15:21:21.897Z,47.63
2017-12-03T15:23:48.065Z,43.80
2017-12-03T15:26:15.012Z,50.00
2017-12-03T15:28:42.040Z,46.67
2017-12-03T15:31:08.234Z,45.07
2017-12-03T15:33:34.402Z,45.90
2017-12-03T15:36:00.598Z,49.20
2017-12-03T15:38:26.778Z,51.80
2017-12-03T15:40:52.947Z,55.77
2017-12-03T15:43:19.536Z,54.13
2017-12-03T15:45:45.833Z,55.00
2017-12-03T15:48:12.029Z,47.10
2017-12-03T15:50:38.242Z,55.00
2017-12-03T15:53:04.425Z,59.17
2017-12-03T15:55:31.335Z,54.60
2017-12-03T15:57:58.362Z,51.97
2017-12-03T16:00:25.544Z,56.93
2017-12-03T16:02:51.777Z,54.20
2017-12-03T16:05:17.981Z,56.07
2017-12-03T16:07:44.169Z,48.13
2017-12-03T16:10:11.094Z,58.27
2017-12-03T16:12:37.629Z,51.40
2017-12-03T16:15:05.155Z,50.83
2017-12-03T16:17:31.316Z,45.53
2017-12-03T16:19:57.503Z,49.67
2017-12-03T16:22:23.924Z,45.80
2017-12-03T16:24:51.598Z,47.50
2017-12-03T16:27:18.665Z,55.27
2017-12-03T16:29:45.123Z,51.43
2017-12-03T16:32:12.019Z,44.00
2017-12-03T16:34:38.205Z,55.30
2017-12-03T16:37:04.369Z,58.23
2017-12-03T16:39:31.255Z,59.07
2017-12-03T16:41:58.458Z,48.43
2017-12-03T16:44:25.077Z,49.00
2017-12-03T16:46:54.633Z,64.60
2017-12-03T16:49:23.032Z,56.07
2017-12-03T16:51:49.213Z,52.30
2017-12-03T16:54:16.367Z,51.20
2017-12-03T16:56:42.760Z,56.70
2017-12-03T16:59:09.042Z,54.47
2017-12-03T17:01:35.250Z,51.97
2017-12-03T17:04:02.231Z,52.93
2017-12-03T17:06:28.408Z,53.63
2017-12-03T17:08:54.623Z,61.20
2017-12-03T17:11:20.968Z,43.77
2017-12-03T17:13:47.137Z,43.07
2017-12-03T17:16:13.333Z,52.27
2017-12-03T17:18:39.560Z,40.07
2017-12-03T17:21:05.766Z,38.50
2017-12-03T17:23:31.949Z,39.43
2017-12-03T17:25:58.162Z,47.70
2017-12-03T17:28:24.308Z,45.20
2017-12-03T17:30:50.475Z,48.27
2017-12-03T17:33:16.755Z,43.83
2017-12-03T17:35:42.946Z,44.50
2017-12-03T17:38:09.866Z,51.57
2017-12-03T17:40:36.097Z,44.03
2017-12-03T17:43:03.052Z,47.00
2017-12-03T17:45:30.733Z,46.77
2017-12-03T17:47:56.915Z,47.90
2017-12-03T17:50:23.837Z,36.47
2017-12-03T17:52:50.020Z,42.80
2017-12-03T17:55:16.953Z,35.50
2017-12-03T17:57:43.129Z,53.40
2017-12-03T18:00:10.132Z,45.93
2017-12-03T18:02:36.565Z,47.10
2017-12-03T18:05:02.742Z,49.50
2017-12-03T18:07:28.930Z,41.73
2017-12-03T18:09:55.960Z,47.90
2017-12-03T18:12:22.902Z,43.00
2017-12-03T18:14:49.074Z,36.33
2017-12-03T18:17:16.174Z,45.57
2017-12-03T18:19:42.357Z,34.33
2017-12-03T18:22:08.557Z,35.10
2017-12-03T18:24:34.773Z,37.43
2017-12-03T18:27:00.950Z,39.47
2017-12-03T18:29:27.861Z,31.60
2017-12-03T18:31:54.401Z,42.23
2017-12-03T18:34:20.649Z,31.90
2017-12-03T18:36:46.868Z,54.43
2017-12-03T18:39:13.102Z,80.83
2017-12-03T18:41:39.296Z,35.07
2017-12-03T18:44:05.525Z,39.93
2017-12-03T18:46:31.761Z,27.70
2017-12-03T18:48:57.977Z,38.63
2017-12-03T18:51:24.905Z,31.50
2017-12-03T18:53:51.162Z,28.70
2017-12-03T18:56:18.109Z,32.83
2017-12-03T18:58:45.077Z,24.90
2017-12-03T19:01:12.100Z,37.67
2017-12-03T19:03:38.474Z,29.87
2017-12-03T19:06:04.702Z,26.63
2017-12-03T19:08:30.924Z,26.73
2017-12-03T19:10:57.845Z,23.93
2017-12-03T19:13:24.034Z,37.90
2017-12-03T19:15:50.308Z,30.17
2017-12-03T19:18:16.606Z,25.13
2017-12-03T19:20:43.042Z,33.53
2017-12-03T19:23:09.824Z,24.10
2017-12-03T19:25:36.030Z,35.20
2017-12-03T19:28:03.064Z,37.70
2017-12-03T19:30:30.469Z,18.97
2017-12-03T19:32:56.758Z,28.87
2017-12-03T19:35:23.674Z,22.40
2017-12-03T19:37:50.057Z,37.60
2017-12-03T19:40:16.327Z,20.53
2017-12-03T19:42:43.346Z,33.47
2017-12-03T19:45:09.567Z,30.40
2017-12-03T19:47:36.504Z,31.60
2017-12-03T19:50:03.511Z,32.07
2017-12-03T19:52:29.880Z,27.27
2017-12-03T19:54:56.163Z,35.17
2017-12-03T19:57:22.341Z,30.73
2017-12-03T19:59:49.388Z,63.60
2017-12-03T20:02:16.463Z,48.07
2017-12-03T20:04:42.809Z,38.40
2017-12-03T20:07:09.938Z,29.87
2017-12-03T20:09:36.877Z,33.53
2017-12-03T20:12:03.068Z,49.20
2017-12-03T20:14:30.158Z,29.10
2017-12-03T20:16:56.334Z,26.53
2017-12-03T20:19:22.755Z,33.63
2017-12-03T20:21:49.816Z,19.97
2017-12-03T20:24:16.051Z,29.43
2017-12-03T20:26:42.980Z,40.43
2017-12-03T20:29:09.578Z,32.13
2017-12-03T20:31:35.767Z,28.90
2017-12-03T20:34:01.985Z,38.50
2017-12-03T20:36:28.323Z,34.03
2017-12-03T20:38:54.512Z,24.23
2017-12-03T20:41:21.465Z,28.47
2017-12-03T20:43:47.721Z,31.70
2017-12-03T20:46:14.136Z,33.83
2017-12-03T20:48:40.539Z,23.10
2017-12-03T20:51:06.918Z,67.33
2017-12-03T20:53:33.125Z,33.57
2017-12-03T20:55:59.333Z,47.30
2017-12-03T20:58:25.531Z,19.20
2017-12-03T21:00:51.706Z,24.63
2017-12-03T21:03:18.101Z,37.00
2017-12-03T21:05:44.465Z,26.37
2017-12-03T21:08:11.447Z,26.83
2017-12-03T21:10:38.433Z,27.70
2017-12-03T21:13:04.693Z,19.60
2017-12-03T21:15:31.059Z,29.33
2017-12-03T21:17:58.081Z,20.07
2017-12-03T21:20:24.341Z,24.67
2017-12-03T21:22:50.622Z,18.63
2017-12-03T21:25:16.847Z,19.80
2017-12-03T21:27:43.770Z,19.90
2017-12-03T21:30:09.968Z,29.27
2017-12-03T21:32:36.137Z,16.20
2017-12-03T21:35:02.386Z,10.03
2017-12-03T21:37:28.578Z,24.63
2017-12-03T21:39:54.776Z,26.83
2017-12-03T21:42:21.032Z,28.03
2017-12-03T21:44:47.204Z,19.27
2017-12-03T21:47:13.385Z,34.63
2017-12-03T21:49:39.582Z,23.63
2017-12-03T21:52:05.742Z,19.77
2017-12-03T21:54:32.672Z,22.57
2017-12-03T21:56:58.870Z,25.33
2017-12-03T21:59:25.038Z,29.67
2017-12-03T22:01:51.206Z,26.00
2017-12-03T22:04:17.502Z,21.87
2017-12-03T22:06:43.937Z,21.50
2017-12-03T22:09:10.120Z,18.53
2017-12-03T22:11:36.325Z,14.63
2017-12-03T22:14:03.264Z,32.60
2017-12-03T22:16:29.453Z,26.30
2017-12-03T22:18:55.660Z,32.43
2017-12-03T22:21:21.821Z,26.00
2017-12-03T22:23:48.018Z,21.10
2017-12-03T22:26:14.245Z,19.40
2017-12-03T22:28:41.164Z,22.90
2017-12-03T22:31:07.329Z,19.53
2017-12-03T22:33:34.270Z,27.63
2017-12-03T22:36:00.486Z,19.03
2017-12-03T22:38:26.668Z,26.33
2017-12-03T22:40:53.602Z,26.10
2017-12-03T22:43:19.797Z,15.03
2017-12-03T22:45:45.980Z,14.80
2017-12-03T22:48:12.922Z,15.40
2017-12-03T22:50:39.829Z,26.10
2017-12-03T22:53:06.003Z,27.17
2017-12-03T22:55:32.927Z,15.63
2017-12-03T22:57:59.109Z,20.07
2017-12-03T23:00:33.068Z,23.60
2017-12-03T23:03:00.290Z,13.37
2017-12-03T23:05:27.557Z,21.67
2017-12-03T23:07:54.025Z,17.97
2017-12-03T23:10:20.983Z,21.50
2017-12-03T23:12:47.165Z,16.57
2017-12-03T23:15:13.390Z,18.40
2017-12-03T23:17:39.607Z,15.83
2017-12-03T23:20:06.594Z,18.37
2017-12-03T23:22:32.830Z,16.60
2017-12-03T23:24:58.997Z,10.30
2017-12-03T23:27:25.154Z,22.83
2017-12-03T23:29:51.336Z,12.17
2017-12-03T23:32:17.502Z,11.40
2017-12-03T23:34:43.684Z,12.40
2017-12-03T23:37:09.882Z,11.13
2017-12-03T23:39:36.089Z,12.33
2017-12-03T23:42:02.273Z,19.97
2017-12-03T23:44:28.464Z,21.93
2017-12-03T23:46:54.639Z,11.47
2017-12-03T23:49:21.574Z,16.80
2017-12-03T23:51:47.734Z,15.10
2017-12-03T23:54:13.929Z,14.20
2017-12-03T23:56:40.077Z,16.60
2017-12-03T23:59:07.005Z,14.97
